Nice, France
Current Conditions -  °F | °C
As of 8:30 PM on Friday 24 Oct 2014 (Local Time) from LFMN Reporting Station
Clear Clear  
Wind Chill: 63°   Ceiling: Unl
Heat Index: 63°   Visibility: 6mi
Dew Point: 48°   Wind: 8mph
Humidity: 59%   Direction: 330°NNW
Pressure: 29.91"   Gusts: NA
Location:  43.7°N, 7.27°E
Report Text: LFMN 241830Z 33007KT CAVOK 17/09 Q1013 NOSIG
Loading
Personal Weather Stations






























Interactive Weather Map New forecast layout! Learn more

10-Day Weather Forecast

Advertisements
Track Severe Weather on mobile